KLWV

Lawrenceville-Vincennes International Airport

Lawrenceville, Illinois, USA
METAR KLWV 210653Z AUTO 00000KT 7SM CLR 22/21 A3007 RMK AO2 SLP178 T02220206
Observed Flight Rules
May-21 @ 06:53 UTC (27 minutes ago) Visual Flight Rules
Visibility Clouds
7 miles
  • Clear skies
Temperatures Readings
Current 22°C / 72°F
Dewpoint 21°C / 70°F
Humidity 94%
Altimeter 30.07" Hg
Pressure 1017.8 hPa
Elevation 131
METAR KLWV 210653Z AUTO 00000KT 7SM CLR 22/21 A3007 RMK AO2 SLP178 T02220206
Observed Flight Rules
May-21 @ 06:53 UTC
(27 minutes ago)
VFR
Clouds
  • Clear skies
Temperature Dewpoint
22°C / 72°F 21°C / 70°F
Humidity Altimeter Pressure
94% 30.07" Hg 1017.8 hPa